Ever Decent — 9V7952 — position and weather

sailwx.info

Track history (hours):
 
Tides and Currents Weather Stations Pressure Air Temp Water Temp Dewpoint Dewpoint Depression Visibility Wind Speed Wind Dir Waves Ship Positions

Ever Decent

Last reported at 2017-Jul-22 03:21 UTC. Time now 2017-Jul-26 20:32 UTC.
Position N 01°15' E 103°23'.

Length 294 m; draft 12.2 m.

Type: Cargo ship. MMSI: 564904000.

Date/timePositionNaut miles runAvg speedWind from/ knotsBaromVisibWave heightAir tempDewpointWater temp
2017-Jul-22 03:21N 01°15' E 103°23'513.9
2017-Jul-22 03:00N 01°13' E 103°28'713.7
2017-Jul-22 02:30N 01°12' E 103°34'713.2
2017-Jul-22 02:00N 01°10' E 103°41'612.1
2017-Jul-22 01:30N 01°10' E 103°47'612.7
2017-Jul-22 01:00N 01°14' E 103°52'3 5.8
2017-Jul-22 00:30N 01°16' E 103°50'0 0.3
2017-Jul-22 00:00N 01°16' E 103°50'0 0.1
2017-Jul-21 23:25N 01°16' E 103°50'0 0.0
2017-Jul-21 22:55N 01°16' E 103°50'0 0.0
2017-Jul-21 22:25N 01°16' E 103°50'0 0.0
2017-Jul-21 21:58N 01°16' E 103°50'0 0.1
2017-Jul-21 21:25N 01°16' E 103°50'0 0.1
2017-Jul-21 20:58N 01°16' E 103°50'0 0.0
2017-Jul-21 20:28N 01°16' E 103°50'0 0.0
2017-Jul-21 20:00N 01°16' E 103°50'0 0.1
2017-Jul-21 19:30N 01°16' E 103°50'0 0.0
2017-Jul-21 18:57N 01°16' E 103°50'0 0.1
2017-Jul-21 18:27N 01°16' E 103°50'0 0.0
2017-Jul-21 18:00N 01°16' E 103°50'0 0.0
2017-Jul-21 17:30N 01°16' E 103°50'0 0.0
2017-Jul-21 17:00N 01°16' E 103°50'0 0.0
2017-Jul-21 16:27N 01°16' E 103°50'0 0.0
2017-Jul-21 15:57N 01°16' E 103°50'0 0.0
2017-Jul-21 15:30N 01°16' E 103°50'0 0.0
2017-Jul-21 14:58N 01°16' E 103°50'0 0.0
2017-Jul-21 14:28N 01°16' E 103°50'0 0.1
2017-Jul-21 13:58N 01°16' E 103°50'0 0.0
2017-Jul-21 13:28N 01°16' E 103°50'0 0.0
2017-Jul-21 12:58N 01°16' E 103°50'0 0.0
2017-Jul-21 12:28N 01°16' E 103°50'0 0.1
2017-Jul-21 11:58N 01°16' E 103°50'0 0.0
2017-Jul-21 11:22N 01°16' E 103°50'0 0.0
2017-Jul-21 10:58N 01°16' E 103°50'0 0.0
2017-Jul-21 10:28N 01°16' E 103°50'0 0.7
2017-Jul-21 10:00N 01°16' E 103°51'2 4.3
2017-Jul-21 09:30N 01°14' E 103°52'2 4.4
2017-Jul-21 09:00N 01°14' E 103°54'4 8.2
2017-Jul-21 08:30N 01°15' E 103°58'6 9.7
2017-Jul-21 07:56N 01°16' E 104°04'5 9.3
2017-Jul-21 07:24N 01°17' E 104°09'4 9.0
2017-Jul-21 06:57N 01°18' E 104°13'  
2017-Jul-17 03:31N 22°19' E 114°07'0 1.3
2017-Jul-17 03:30N 22°19' E 114°07'0 0.0
2017-Jul-16 13:35N 22°19' E 114°07'0 1.3
2017-Jul-16 13:29N 22°19' E 114°07'24615.0
2017-Jul-15 21:06N 23°47' E 118°17'1018.3
2017-Jul-15 20:35N 23°56' E 118°18'117.9
2017-Jul-15 20:30N 23°57' E 118°19'917.9
2017-Jul-15 20:00N 24°06' E 118°18'816.3
2017-Jul-15 19:30N 24°14' E 118°16'714.0
2017-Jul-15 19:00N 24°20' E 118°11'612.1
2017-Jul-15 18:30N 24°24' E 118°06'5 9.8
2017-Jul-15 18:00N 24°28' E 118°03'3 6.2
2017-Jul-15 17:30N 24°31' E 118°05'0 0.3
2017-Jul-15 16:51N 24°31' E 118°05'0 0.0
2017-Jul-15 16:27N 24°31' E 118°05'0 0.0
2017-Jul-15 15:57N 24°31' E 118°05'0 0.0
2017-Jul-15 15:30N 24°31' E 118°05'0 0.0
2017-Jul-15 14:57N 24°31' E 118°05'0 0.0
2017-Jul-15 13:54N 24°31' E 118°05'0 0.0
2017-Jul-15 13:30N 24°31' E 118°05'0 0.0
2017-Jul-15 12:57N 24°31' E 118°05'0 0.1
2017-Jul-15 12:27N 24°31' E 118°05'0 0.0
2017-Jul-15 11:51N 24°31' E 118°05'0 0.0
2017-Jul-15 11:27N 24°31' E 118°05'0 0.0
2017-Jul-15 11:00N 24°31' E 118°05'0 0.0
2017-Jul-15 10:09N 24°31' E 118°05'0 0.1
2017-Jul-15 09:57N 24°31' E 118°05'0 0.0
2017-Jul-15 09:27N 24°31' E 118°05'0 0.0
2017-Jul-15 08:57N 24°31' E 118°05'0 0.0
2017-Jul-15 08:27N 24°31' E 118°05'0 0.0
2017-Jul-15 07:57N 24°31' E 118°05'0 0.0
2017-Jul-15 07:27N 24°31' E 118°05'0 0.0
2017-Jul-15 06:57N 24°31' E 118°05'0 0.0
2017-Jul-15 06:27N 24°31' E 118°05'0 0.0
2017-Jul-15 05:57N 24°31' E 118°05'0 0.0
2017-Jul-15 05:27N 24°31' E 118°05'0 0.0
2017-Jul-15 04:57N 24°31' E 118°05'0 0.0
2017-Jul-15 04:27N 24°31' E 118°05'0 0.0
2017-Jul-15 03:57N 24°31' E 118°05'0 0.0
2017-Jul-15 03:27N 24°31' E 118°05'0 0.1
2017-Jul-15 03:00N 24°31' E 118°05'0 0.1
2017-Jul-15 02:27N 24°31' E 118°05'0 0.0
2017-Jul-15 02:00N 24°31' E 118°05'0 0.0
2017-Jul-15 01:27N 24°31' E 118°05'0 0.0
2017-Jul-15 01:00N 24°31' E 118°05'0 0.0
2017-Jul-15 00:30N 24°31' E 118°05'0 0.0
2017-Jul-14 23:54N 24°31' E 118°05'0 0.0
2017-Jul-14 23:27N 24°31' E 118°05'0 0.0
2017-Jul-14 22:57N 24°31' E 118°05'0 0.0
2017-Jul-14 22:30N 24°31' E 118°05'0 0.0
2017-Jul-14 21:57N 24°31' E 118°05'0 0.0
2017-Jul-14 21:21N 24°31' E 118°05'0 0.0
2017-Jul-14 20:57N 24°31' E 118°05'0 0.0
2017-Jul-14 20:27N 24°31' E 118°05'0 0.3
2017-Jul-14 20:00N 24°31' E 118°05'5 9.2
2017-Jul-14 19:31N 24°26' E 118°03'611.1
2017-Jul-14 19:00N 24°23' E 118°08'713.4
2017-Jul-14 18:31N 24°18' E 118°13'814.9
2017-Jul-14 18:00N 24°12' E 118°18'917.5
2017-Jul-14 17:27N 24°04' E 118°23'11818.2
2017-Jul-14 10:59N 22°39' E 119°52'917.9
2017-Jul-14 10:28N 22°35' E 120°01'817.3
2017-Jul-14 10:01N 22°33' E 120°09'714.7
2017-Jul-14 09:30N 22°33' E 120°17'2 3.1
2017-Jul-14 08:59N 22°33' E 120°19'0 0.0
2017-Jul-14 08:21N 22°33' E 120°19'0 0.0
2017-Jul-14 06:45N 22°33' E 120°19'0 0.0
2017-Jul-14 06:30N 22°33' E 120°19'0 0.0
2017-Jul-14 05:51N 22°33' E 120°19'0 0.0
2017-Jul-14 05:30N 22°33' E 120°19'0 0.0
2017-Jul-14 04:42N 22°33' E 120°19'0 0.0
2017-Jul-14 04:30N 22°33' E 120°19'0 0.0
2017-Jul-14 03:57N 22°33' E 120°19'0 0.0
2017-Jul-14 03:30N 22°33' E 120°19'0 0.0
2017-Jul-14 03:00N 22°33' E 120°19'0 0.0
2017-Jul-14 02:27N 22°33' E 120°19'0 0.0
2017-Jul-14 01:27N 22°33' E 120°19'0 0.0
2017-Jul-14 01:00N 22°33' E 120°19'0 0.0
2017-Jul-14 00:30N 22°33' E 120°19'0 0.0
2017-Jul-14 00:00N 22°33' E 120°19'0 0.0
2017-Jul-13 23:30N 22°33' E 120°19'0 0.0
2017-Jul-13 23:00N 22°33' E 120°19'0 0.0
2017-Jul-13 22:30N 22°33' E 120°19'0 0.0
2017-Jul-13 22:00N 22°33' E 120°19'0 0.0
2017-Jul-13 21:30N 22°33' E 120°19'0 0.0
2017-Jul-13 21:00N 22°33' E 120°19'0 0.0
2017-Jul-13 20:24N 22°33' E 120°19'0 0.0
2017-Jul-13 18:09N 22°33' E 120°19'0 0.2
2017-Jul-13 18:00N 22°33' E 120°19'0 0.0
2017-Jul-13 17:27N 22°33' E 120°19'0 0.0
2017-Jul-13 16:57N 22°33' E 120°19'1 1.9
2017-Jul-13 16:30N 22°33' E 120°18'2 4.9
2017-Jul-13 16:00N 22°32' E 120°16'2 3.1
2017-Jul-13 15:30N 22°32' E 120°14'3 5.3
2017-Jul-13 15:00N 22°29' E 120°13'1 1.6
2017-Jul-13 14:30N 22°29' E 120°12'0 0.7
2017-Jul-13 14:00N 22°29' E 120°12'0 0.2
2017-Jul-13 13:30N 22°29' E 120°12'0 0.7
2017-Jul-13 13:00N 22°29' E 120°12'3 6.2
2017-Jul-13 12:31N 22°27' E 120°09'714.2
2017-Jul-13 12:00N 22°23' E 120°03'714.3
2017-Jul-13 11:30N 22°18' E 119°58'  
Track history (hours):
 
Tides and Currents Weather Stations Pressure Air Temp Water Temp Dewpoint Dewpoint Depression Visibility Wind Speed Wind Dir Waves Ship Positions

Ever Decent

Last reported at 2017-Jul-22 03:21 UTC. Time now 2017-Jul-26 20:32 UTC.
Position N 01°15' E 103°23'.

Length 294 m; draft 12.2 m.

Type: Cargo ship. MMSI: 564904000.

Date/timePositionNaut miles runAvg speedWind from/ knotsBaromVisibWave heightAir tempDewpointWater temp
2017-Jul-22 03:21N 01°15' E 103°23'513.9
2017-Jul-22 03:00N 01°13' E 103°28'713.7
2017-Jul-22 02:30N 01°12' E 103°34'713.2
2017-Jul-22 02:00N 01°10' E 103°41'612.1
2017-Jul-22 01:30N 01°10' E 103°47'612.7
2017-Jul-22 01:00N 01°14' E 103°52'3 5.8
2017-Jul-22 00:30N 01°16' E 103°50'0 0.3
2017-Jul-22 00:00N 01°16' E 103°50'0 0.1
2017-Jul-21 23:25N 01°16' E 103°50'0 0.0
2017-Jul-21 22:55N 01°16' E 103°50'0 0.0
2017-Jul-21 22:25N 01°16' E 103°50'0 0.0
2017-Jul-21 21:58N 01°16' E 103°50'0 0.1
2017-Jul-21 21:25N 01°16' E 103°50'0 0.1
2017-Jul-21 20:58N 01°16' E 103°50'0 0.0
2017-Jul-21 20:28N 01°16' E 103°50'0 0.0
2017-Jul-21 20:00N 01°16' E 103°50'0 0.1
2017-Jul-21 19:30N 01°16' E 103°50'0 0.0
2017-Jul-21 18:57N 01°16' E 103°50'0 0.1
2017-Jul-21 18:27N 01°16' E 103°50'0 0.0
2017-Jul-21 18:00N 01°16' E 103°50'0 0.0
2017-Jul-21 17:30N 01°16' E 103°50'0 0.0
2017-Jul-21 17:00N 01°16' E 103°50'0 0.0
2017-Jul-21 16:27N 01°16' E 103°50'0 0.0
2017-Jul-21 15:57N 01°16' E 103°50'0 0.0
2017-Jul-21 15:30N 01°16' E 103°50'0 0.0
2017-Jul-21 14:58N 01°16' E 103°50'0 0.0
2017-Jul-21 14:28N 01°16' E 103°50'0 0.1
2017-Jul-21 13:58N 01°16' E 103°50'0 0.0
2017-Jul-21 13:28N 01°16' E 103°50'0 0.0
2017-Jul-21 12:58N 01°16' E 103°50'0 0.0
2017-Jul-21 12:28N 01°16' E 103°50'0 0.1
2017-Jul-21 11:58N 01°16' E 103°50'0 0.0
2017-Jul-21 11:22N 01°16' E 103°50'0 0.0
2017-Jul-21 10:58N 01°16' E 103°50'0 0.0
2017-Jul-21 10:28N 01°16' E 103°50'0 0.7
2017-Jul-21 10:00N 01°16' E 103°51'2 4.3
2017-Jul-21 09:30N 01°14' E 103°52'2 4.4
2017-Jul-21 09:00N 01°14' E 103°54'4 8.2
2017-Jul-21 08:30N 01°15' E 103°58'6 9.7
2017-Jul-21 07:56N 01°16' E 104°04'5 9.3
2017-Jul-21 07:24N 01°17' E 104°09'4 9.0
2017-Jul-21 06:57N 01°18' E 104°13'  
2017-Jul-17 03:31N 22°19' E 114°07'0 1.3
2017-Jul-17 03:30N 22°19' E 114°07'0 0.0
2017-Jul-16 13:35N 22°19' E 114°07'0 1.3
2017-Jul-16 13:29N 22°19' E 114°07'24615.0
2017-Jul-15 21:06N 23°47' E 118°17'1018.3
2017-Jul-15 20:35N 23°56' E 118°18'117.9
2017-Jul-15 20:30N 23°57' E 118°19'917.9
2017-Jul-15 20:00N 24°06' E 118°18'816.3
2017-Jul-15 19:30N 24°14' E 118°16'714.0
2017-Jul-15 19:00N 24°20' E 118°11'612.1
2017-Jul-15 18:30N 24°24' E 118°06'5 9.8
2017-Jul-15 18:00N 24°28' E 118°03'3 6.2
2017-Jul-15 17:30N 24°31' E 118°05'0 0.3
2017-Jul-15 16:51N 24°31' E 118°05'0 0.0
2017-Jul-15 16:27N 24°31' E 118°05'0 0.0
2017-Jul-15 15:57N 24°31' E 118°05'0 0.0
2017-Jul-15 15:30N 24°31' E 118°05'0 0.0
2017-Jul-15 14:57N 24°31' E 118°05'0 0.0
2017-Jul-15 13:54N 24°31' E 118°05'0 0.0
2017-Jul-15 13:30N 24°31' E 118°05'0 0.0
2017-Jul-15 12:57N 24°31' E 118°05'0 0.1
2017-Jul-15 12:27N 24°31' E 118°05'0 0.0
2017-Jul-15 11:51N 24°31' E 118°05'0 0.0
2017-Jul-15 11:27N 24°31' E 118°05'0 0.0
2017-Jul-15 11:00N 24°31' E 118°05'0 0.0
2017-Jul-15 10:09N 24°31' E 118°05'0 0.1
2017-Jul-15 09:57N 24°31' E 118°05'0 0.0
2017-Jul-15 09:27N 24°31' E 118°05'0 0.0
2017-Jul-15 08:57N 24°31' E 118°05'0 0.0
2017-Jul-15 08:27N 24°31' E 118°05'0 0.0
2017-Jul-15 07:57N 24°31' E 118°05'0 0.0
2017-Jul-15 07:27N 24°31' E 118°05'0 0.0
2017-Jul-15 06:57N 24°31' E 118°05'0 0.0
2017-Jul-15 06:27N 24°31' E 118°05'0 0.0
2017-Jul-15 05:57N 24°31' E 118°05'0 0.0
2017-Jul-15 05:27N 24°31' E 118°05'0 0.0
2017-Jul-15 04:57N 24°31' E 118°05'0 0.0
2017-Jul-15 04:27N 24°31' E 118°05'0 0.0
2017-Jul-15 03:57N 24°31' E 118°05'0 0.0
2017-Jul-15 03:27N 24°31' E 118°05'0 0.1
2017-Jul-15 03:00N 24°31' E 118°05'0 0.1
2017-Jul-15 02:27N 24°31' E 118°05'0 0.0
2017-Jul-15 02:00N 24°31' E 118°05'0 0.0
2017-Jul-15 01:27N 24°31' E 118°05'0 0.0
2017-Jul-15 01:00N 24°31' E 118°05'0 0.0
2017-Jul-15 00:30N 24°31' E 118°05'0 0.0
2017-Jul-14 23:54N 24°31' E 118°05'0 0.0
2017-Jul-14 23:27N 24°31' E 118°05'0 0.0
2017-Jul-14 22:57N 24°31' E 118°05'0 0.0
2017-Jul-14 22:30N 24°31' E 118°05'0 0.0
2017-Jul-14 21:57N 24°31' E 118°05'0 0.0
2017-Jul-14 21:21N 24°31' E 118°05'0 0.0
2017-Jul-14 20:57N 24°31' E 118°05'0 0.0
2017-Jul-14 20:27N 24°31' E 118°05'0 0.3
2017-Jul-14 20:00N 24°31' E 118°05'5 9.2
2017-Jul-14 19:31N 24°26' E 118°03'611.1
2017-Jul-14 19:00N 24°23' E 118°08'713.4
2017-Jul-14 18:31N 24°18' E 118°13'814.9
2017-Jul-14 18:00N 24°12' E 118°18'917.5
2017-Jul-14 17:27N 24°04' E 118°23'11818.2
2017-Jul-14 10:59N 22°39' E 119°52'917.9
2017-Jul-14 10:28N 22°35' E 120°01'817.3
2017-Jul-14 10:01N 22°33' E 120°09'714.7
2017-Jul-14 09:30N 22°33' E 120°17'2 3.1
2017-Jul-14 08:59N 22°33' E 120°19'0 0.0
2017-Jul-14 08:21N 22°33' E 120°19'0 0.0
2017-Jul-14 06:45N 22°33' E 120°19'0 0.0
2017-Jul-14 06:30N 22°33' E 120°19'0 0.0
2017-Jul-14 05:51N 22°33' E 120°19'0 0.0
2017-Jul-14 05:30N 22°33' E 120°19'0 0.0
2017-Jul-14 04:42N 22°33' E 120°19'0 0.0
2017-Jul-14 04:30N 22°33' E 120°19'0 0.0
2017-Jul-14 03:57N 22°33' E 120°19'0 0.0
2017-Jul-14 03:30N 22°33' E 120°19'0 0.0
2017-Jul-14 03:00N 22°33' E 120°19'0 0.0
2017-Jul-14 02:27N 22°33' E 120°19'0 0.0
2017-Jul-14 01:27N 22°33' E 120°19'0 0.0
2017-Jul-14 01:00N 22°33' E 120°19'0 0.0
2017-Jul-14 00:30N 22°33' E 120°19'0 0.0
2017-Jul-14 00:00N 22°33' E 120°19'0 0.0
2017-Jul-13 23:30N 22°33' E 120°19'0 0.0
2017-Jul-13 23:00N 22°33' E 120°19'0 0.0
2017-Jul-13 22:30N 22°33' E 120°19'0 0.0
2017-Jul-13 22:00N 22°33' E 120°19'0 0.0
2017-Jul-13 21:30N 22°33' E 120°19'0 0.0
2017-Jul-13 21:00N 22°33' E 120°19'0 0.0
2017-Jul-13 20:24N 22°33' E 120°19'0 0.0
2017-Jul-13 18:09N 22°33' E 120°19'0 0.2
2017-Jul-13 18:00N 22°33' E 120°19'0 0.0
2017-Jul-13 17:27N 22°33' E 120°19'0 0.0
2017-Jul-13 16:57N 22°33' E 120°19'1 1.9
2017-Jul-13 16:30N 22°33' E 120°18'2 4.9
2017-Jul-13 16:00N 22°32' E 120°16'2 3.1
2017-Jul-13 15:30N 22°32' E 120°14'3 5.3
2017-Jul-13 15:00N 22°29' E 120°13'1 1.6
2017-Jul-13 14:30N 22°29' E 120°12'0 0.7
2017-Jul-13 14:00N 22°29' E 120°12'0 0.2
2017-Jul-13 13:30N 22°29' E 120°12'0 0.7
2017-Jul-13 13:00N 22°29' E 120°12'3 6.2
2017-Jul-13 12:31N 22°27' E 120°09'714.2
2017-Jul-13 12:00N 22°23' E 120°03'714.3
2017-Jul-13 11:30N 22°18' E 119°58'  

Dump ship's entire track history